Time;durP1;ratioP1;P1;durP2;ratioP2;P2;SDS_P1;SDS_P2;PMS_P1;PMS_P2;Temp;Humidity;BMP_temperature;BMP_pressure;BME280_temperature;BME280_humidity;BME280_pressure;Samples;Min_cycle;Max_cycle;Signal;HPM_P1;HPM_P2
2023/05/08 00:02:09;;;;;;;2.45;1.42;;;;;;;14.47;100.00;96522.38;5042247;28;20255;-69
2023/05/08 00:04:36;;;;;;;9.13;2.42;;;;;;;14.62;100.00;96525.75;5042030;28;20254;-69
2023/05/08 00:07:03;;;;;;;2.70;1.65;;;;;;;14.73;100.00;96525.22;5041799;28;20475;-69
2023/05/08 00:09:29;;;;;;;3.80;2.33;;;;;;;14.82;100.00;96519.56;5041303;28;20647;-69
2023/05/08 00:11:56;;;;;;;2.47;1.50;;;;;;;14.81;100.00;96523.22;5043349;28;20205;-68
2023/05/08 00:14:22;;;;;;;4.00;2.13;;;;;;;14.92;100.00;96514.72;5047721;28;20204;-72
2023/05/08 00:16:48;;;;;;;3.83;1.65;;;;;;;14.80;100.00;96526.06;5046893;28;20654;-70
2023/05/08 00:19:15;;;;;;;2.25;1.60;;;;;;;14.73;100.00;96523.38;5047108;28;20197;-69
2023/05/08 00:21:43;;;;;;;1.92;1.25;;;;;;;14.78;100.00;96525.47;5045821;28;20270;-68
2023/05/08 00:24:09;;;;;;;3.88;1.90;;;;;;;14.71;100.00;96529.91;5046097;28;20646;-69
2023/05/08 00:26:35;;;;;;;2.42;1.85;;;;;;;14.76;100.00;96522.97;5045242;28;20225;-71
2023/05/08 00:29:02;;;;;;;3.58;1.83;;;;;;;14.68;100.00;96530.31;5044730;28;20208;-70
2023/05/08 00:31:28;;;;;;;4.20;1.42;;;;;;;14.67;100.00;96528.66;5045249;28;20705;-70
2023/05/08 00:33:55;;;;;;;2.25;1.52;;;;;;;14.69;100.00;96516.84;5045181;28;20213;-70
2023/05/08 00:36:21;;;;;;;5.63;2.08;;;;;;;14.68;100.00;96520.50;5044996;28;20217;-70
2023/05/08 00:38:49;;;;;;;3.17;1.83;;;;;;;14.91;100.00;96518.38;5044691;28;20823;-70
2023/05/08 00:41:15;;;;;;;2.55;1.75;;;;;;;14.84;100.00;96525.50;5045161;28;20691;-70
2023/05/08 00:43:42;;;;;;;3.20;1.83;;;;;;;14.84;100.00;96520.19;5044758;28;20215;-69
2023/05/08 00:46:10;;;;;;;2.60;1.30;;;;;;;14.76;100.00;96525.63;5045150;28;20225;-70
2023/05/08 00:48:38;;;;;;;9.45;2.42;;;;;;;14.76;100.00;96517.69;5043992;28;20735;-69
2023/05/08 00:51:06;;;;;;;2.88;1.95;;;;;;;14.72;100.00;96521.75;5044581;28;20217;-68
2023/05/08 00:53:37;;;;;;;2.53;1.42;;;;;;;14.78;100.00;96523.63;5044555;28;20650;-70
2023/05/08 00:56:05;;;;;;;4.63;2.22;;;;;;;14.80;100.00;96524.25;5044845;28;20274;-70
2023/05/08 00:58:32;;;;;;;4.13;2.17;;;;;;;14.79;100.00;96527.06;5044547;28;20201;-70
2023/05/08 01:01:00;;;;;;;2.42;1.95;;;;;;;14.87;100.00;96524.28;5044540;28;20247;-70
2023/05/08 01:03:27;;;;;;;3.83;1.88;;;;;;;14.93;100.00;96529.63;5044520;28;20208;-69
2023/05/08 01:05:54;;;;;;;4.38;1.95;;;;;;;14.81;100.00;96525.88;5044424;28;20221;-70
2023/05/08 01:08:20;;;;;;;1.63;1.27;;;;;;;14.91;100.00;96536.16;5044304;28;20209;-70
2023/05/08 01:10:56;;;;;;;2.85;1.92;;;;;;;14.76;100.00;96528.28;5044177;28;20270;-69
2023/05/08 01:13:40;;;;;;;3.20;1.40;;;;;;;14.76;100.00;96538.91;5044393;28;20201;-69
2023/05/08 01:16:14;;;;;;;1.92;1.55;;;;;;;14.95;100.00;96532.88;5044062;28;20749;-69
2023/05/08 01:18:45;;;;;;;3.85;1.67;;;;;;;14.93;100.00;96534.94;5043787;28;20299;-69
2023/05/08 01:21:21;;;;;;;2.10;1.67;;;;;;;14.86;100.00;96534.06;5044420;28;20201;-69
2023/05/08 01:24:30;;;;;;;5.07;2.38;;;;;;;14.71;100.00;96540.50;5043731;28;20715;-69
2023/05/08 01:27:43;;;;;;;3.00;1.63;;;;;;;14.76;100.00;96546.84;5044767;28;20228;-69
2023/05/08 01:30:44;;;;;;;2.08;0.95;;;;;;;14.87;100.00;96551.63;5037898;28;20227;-70
2023/05/08 01:33:18;;;;;;;3.08;1.73;;;;;;;14.84;100.00;96552.03;5045701;28;20201;-68
2023/05/08 01:35:49;;;;;;;2.90;1.55;;;;;;;14.86;100.00;96551.84;5045663;28;20711;-71
2023/05/08 01:38:26;;;;;;;3.00;1.80;;;;;;;14.80;100.00;96555.25;5045209;28;20205;-69
2023/05/08 01:41:01;;;;;;;3.15;1.92;;;;;;;14.76;100.00;96552.16;5043532;28;20201;-69
2023/05/08 01:43:33;;;;;;;3.72;2.22;;;;;;;14.71;100.00;96545.81;5043933;28;20690;-69
2023/05/08 01:46:05;;;;;;;4.50;1.83;;;;;;;14.77;100.00;96540.53;5044208;28;20225;-69
2023/05/08 01:48:38;;;;;;;2.40;1.92;;;;;;;14.91;100.00;96542.25;5043270;28;20212;-68
2023/05/08 01:51:08;;;;;;;3.58;2.17;;;;;;;14.87;100.00;96545.53;5043748;28;20221;-69
2023/05/08 01:53:38;;;;;;;3.97;2.20;;;;;;;14.85;100.00;96540.38;5043751;28;20209;-70
2023/05/08 01:56:10;;;;;;;2.75;1.88;;;;;;;14.91;100.00;96544.91;5045230;28;20792;-69
2023/05/08 01:58:38;;;;;;;4.85;2.47;;;;;;;14.91;100.00;96542.25;5045091;28;20296;-69
2023/05/08 02:01:05;;;;;;;3.72;1.65;;;;;;;14.89;100.00;96539.00;5044924;28;20284;-70
2023/05/08 02:03:34;;;;;;;4.80;2.25;;;;;;;14.90;100.00;96537.97;5045155;28;20209;-70
2023/05/08 02:06:02;;;;;;;4.30;1.95;;;;;;;14.80;100.00;96540.19;5045166;28;20303;-71
2023/05/08 02:08:29;;;;;;;4.25;3.03;;;;;;;14.82;100.00;96537.31;5045314;28;20205;-69
2023/05/08 02:10:57;;;;;;;5.65;2.05;;;;;;;14.77;100.00;96537.09;5044032;28;20306;-72
2023/05/08 02:13:27;;;;;;;5.47;1.88;;;;;;;14.79;100.00;96535.88;5045324;28;20266;-68
2023/05/08 02:15:55;;;;;;;4.13;2.05;;;;;;;14.66;100.00;96538.47;5043143;28;20224;-71
2023/05/08 02:18:24;;;;;;;3.03;1.73;;;;;;;14.68;100.00;96547.03;5042567;28;20193;-71
2023/05/08 02:20:55;;;;;;;3.03;1.98;;;;;;;14.71;100.00;96544.00;5043584;28;20570;-68
2023/05/08 02:23:23;;;;;;;2.60;1.63;;;;;;;14.72;100.00;96542.16;5044683;28;20208;-70
2023/05/08 02:25:51;;;;;;;4.32;2.42;;;;;;;14.75;100.00;96537.28;5042502;28;20582;-68
2023/05/08 02:28:19;;;;;;;3.13;1.98;;;;;;;14.69;100.00;96543.38;5044643;28;20202;-68
2023/05/08 02:30:47;;;;;;;5.30;2.92;;;;;;;14.74;100.00;96535.66;5044613;28;20220;-71
2023/05/08 02:33:16;;;;;;;5.57;2.47;;;;;;;14.79;100.00;96537.69;5043065;28;20208;-70
2023/05/08 02:35:45;;;;;;;2.95;1.38;;;;;;;14.76;100.00;96544.22;5042073;28;20221;-68
2023/05/08 02:38:15;;;;;;;4.25;2.42;;;;;;;14.77;100.00;96543.19;5042215;28;20202;-70
2023/05/08 02:40:48;;;;;;;6.43;3.10;;;;;;;14.79;100.00;96549.16;5042437;28;20296;-69
2023/05/08 02:43:14;;;;;;;3.63;2.13;;;;;;;14.70;100.00;96545.00;5042538;28;20201;-68
2023/05/08 02:45:45;;;;;;;5.20;2.47;;;;;;;14.82;100.00;96548.75;5042509;28;20224;-68
2023/05/08 02:48:16;;;;;;;5.13;2.35;;;;;;;14.82;100.00;96540.78;5043317;28;20205;-70
2023/05/08 02:50:49;;;;;;;5.82;2.55;;;;;;;14.83;100.00;96542.44;5043769;28;20270;-72
2023/05/08 02:53:25;;;;;;;4.97;2.50;;;;;;;14.87;100.00;96535.72;5044367;28;20209;-69
2023/05/08 02:55:54;;;;;;;4.07;2.65;;;;;;;14.83;100.00;96537.13;5043988;28;20688;-69
2023/05/08 02:58:29;;;;;;;3.58;2.13;;;;;;;14.82;100.00;96535.47;5042742;28;20209;-69
2023/05/08 03:01:00;;;;;;;3.78;2.17;;;;;;;14.76;100.00;96538.09;5042551;28;20212;-69
2023/05/08 03:03:32;;;;;;;5.00;2.70;;;;;;;14.67;100.00;96542.72;5042309;28;20212;-68
2023/05/08 03:06:02;;;;;;;3.75;1.63;;;;;;;14.71;100.00;96546.66;5043006;28;20247;-69
2023/05/08 03:08:33;;;;;;;4.00;2.53;;;;;;;14.73;100.00;96544.59;5041926;28;20205;-70
2023/05/08 03:11:05;;;;;;;5.80;2.85;;;;;;;14.70;100.00;96549.47;5042255;28;20228;-69
2023/05/08 03:13:35;;;;;;;3.47;1.90;;;;;;;14.81;100.00;96547.09;5042471;28;20212;-69
2023/05/08 03:16:05;;;;;;;3.72;1.60;;;;;;;14.82;100.00;96547.94;5044013;28;20995;-69
2023/05/08 03:18:35;;;;;;;3.75;1.83;;;;;;;14.82;100.00;96546.09;5043659;28;20402;-68
2023/05/08 03:21:05;;;;;;;5.68;2.45;;;;;;;14.80;100.00;96545.47;5044628;28;20204;-69
2023/05/08 03:23:36;;;;;;;3.00;2.20;;;;;;;14.84;100.00;96546.72;5044441;28;20205;-70
2023/05/08 03:26:04;;;;;;;4.47;2.50;;;;;;;14.75;100.00;96545.25;5044318;28;20217;-68
2023/05/08 03:28:32;;;;;;;3.92;2.35;;;;;;;14.79;100.00;96549.16;5043934;28;20210;-68
2023/05/08 03:31:00;;;;;;;4.57;2.10;;;;;;;14.80;100.00;96556.09;5044525;28;20693;-71
2023/05/08 03:33:29;;;;;;;9.38;2.70;;;;;;;14.91;100.00;96552.88;5044783;28;20197;-68
2023/05/08 03:35:57;;;;;;;4.50;1.98;;;;;;;14.91;100.00;96549.41;5044596;28;20217;-68
2023/05/08 03:38:23;;;;;;;6.32;3.65;;;;;;;14.91;100.00;96558.19;5043603;28;20684;-70
2023/05/08 03:40:51;;;;;;;4.20;2.15;;;;;;;14.98;100.00;96552.91;5044613;28;20205;-70
2023/05/08 03:43:20;;;;;;;4.13;2.15;;;;;;;14.94;100.00;96563.13;5044101;28;20205;-70
2023/05/08 03:45:47;;;;;;;4.70;2.17;;;;;;;14.94;100.00;96559.63;5043826;28;20271;-69
2023/05/08 03:48:14;;;;;;;3.42;2.42;;;;;;;14.82;100.00;96564.66;5047631;28;20216;-69
2023/05/08 03:50:41;;;;;;;3.78;2.33;;;;;;;14.89;100.00;96560.22;5047015;28;20228;-69
2023/05/08 03:53:08;;;;;;;4.95;2.05;;;;;;;14.83;100.00;96563.66;5046405;28;20193;-70
2023/05/08 03:55:35;;;;;;;4.80;2.20;;;;;;;14.91;100.00;96568.00;5045851;28;20220;-69
2023/05/08 03:58:10;;;;;;;3.90;2.45;;;;;;;14.96;100.00;96568.22;5045481;28;20447;-69
2023/05/08 04:00:51;;;;;;;3.45;2.22;;;;;;;14.97;100.00;96561.88;5045886;28;20227;-69
2023/05/08 04:03:24;;;;;;;4.47;2.25;;;;;;;14.91;100.00;96574.09;5046624;28;20201;-69
2023/05/08 04:05:59;;;;;;;3.20;1.90;;;;;;;14.97;100.00;96565.38;5045568;28;20229;-69
2023/05/08 04:08:28;;;;;;;2.92;1.95;;;;;;;14.93;100.00;96563.28;5045575;28;20201;-69
2023/05/08 04:11:04;;;;;;;4.18;2.63;;;;;;;14.92;100.00;96578.41;5045900;28;20236;-69
2023/05/08 04:13:36;;;;;;;3.35;2.08;;;;;;;14.97;100.00;96578.66;5045768;28;20204;-69
2023/05/08 04:16:07;;;;;;;4.10;1.77;;;;;;;14.95;100.00;96578.00;5045847;28;20241;-69
2023/05/08 04:18:37;;;;;;;4.38;2.47;;;;;;;14.96;100.00;96579.66;5045017;28;20241;-69
2023/05/08 04:21:09;;;;;;;5.40;2.58;;;;;;;14.89;100.00;96580.63;5045723;28;20307;-69
2023/05/08 04:23:37;;;;;;;3.92;2.08;;;;;;;14.74;100.00;96578.09;5045664;28;20213;-69
2023/05/08 04:26:05;;;;;;;4.43;2.17;;;;;;;14.74;100.00;96578.09;5044957;28;20716;-70
2023/05/08 04:28:33;;;;;;;4.75;2.53;;;;;;;14.62;100.00;96572.69;5044884;28;20209;-71
2023/05/08 04:31:02;;;;;;;5.10;2.47;;;;;;;14.72;100.00;96584.59;5044680;28;20229;-70
2023/05/08 04:33:29;;;;;;;6.22;2.60;;;;;;;14.59;100.00;96581.84;5045422;28;20201;-70
2023/05/08 04:35:56;;;;;;;6.78;2.90;;;;;;;14.63;100.00;96584.94;5045610;28;20225;-70
2023/05/08 04:38:23;;;;;;;8.05;4.13;;;;;;;14.52;100.00;96580.97;5044721;28;20239;-70
2023/05/08 04:40:49;;;;;;;6.07;3.03;;;;;;;14.51;100.00;96583.81;5043954;28;20204;-70
2023/05/08 04:43:15;;;;;;;7.97;3.88;;;;;;;14.68;100.00;96589.47;5044135;28;20193;-69
2023/05/08 04:45:43;;;;;;;3.92;2.22;;;;;;;14.73;100.00;96594.22;5043502;28;20713;-69
2023/05/08 04:48:10;;;;;;;4.38;2.88;;;;;;;14.49;100.00;96589.31;5043274;28;20684;-69
2023/05/08 04:50:36;;;;;;;8.30;4.07;;;;;;;14.54;100.00;96597.53;5043904;28;20666;-69
2023/05/08 04:53:03;;;;;;;7.93;3.17;;;;;;;14.55;100.00;96595.69;5043999;28;20201;-70
2023/05/08 04:55:29;;;;;;;5.28;3.17;;;;;;;14.49;100.00;96607.88;5043921;28;20468;-69
2023/05/08 04:57:56;;;;;;;7.70;3.47;;;;;;;14.54;100.00;96599.38;5042720;28;20205;-69
2023/05/08 05:00:22;;;;;;;7.20;3.60;;;;;;;14.59;100.00;96610.19;5043424;28;20205;-69
2023/05/08 05:02:50;;;;;;;7.68;3.63;;;;;;;14.64;100.00;96614.75;5043483;28;20680;-69
2023/05/08 05:05:16;;;;;;;5.70;2.97;;;;;;;14.64;100.00;96613.94;5043653;28;20204;-68
2023/05/08 05:07:43;;;;;;;4.68;2.88;;;;;;;14.53;100.00;96611.78;5042677;28;20230;-69
2023/05/08 05:10:10;;;;;;;5.68;2.97;;;;;;;14.61;100.00;96611.63;5042921;28;20201;-68
2023/05/08 05:12:37;;;;;;;7.30;3.20;;;;;;;14.64;100.00;96619.25;5043116;28;20225;-69
2023/05/08 05:15:05;;;;;;;5.38;2.85;;;;;;;14.54;100.00;96612.63;5043146;28;20209;-69
2023/05/08 05:17:32;;;;;;;4.93;2.70;;;;;;;14.39;100.00;96609.22;5042531;28;20213;-69
2023/05/08 05:19:59;;;;;;;6.03;2.83;;;;;;;14.41;100.00;96610.69;5044364;28;20208;-68
2023/05/08 05:22:27;;;;;;;5.05;3.17;;;;;;;14.42;100.00;96609.69;5046027;28;20200;-68
2023/05/08 05:24:53;;;;;;;6.40;4.00;;;;;;;14.19;100.00;96617.00;5045578;28;20293;-69
2023/05/08 05:27:20;;;;;;;5.22;2.92;;;;;;;14.21;100.00;96620.28;5044774;28;20228;-71
2023/05/08 05:29:46;;;;;;;7.43;3.33;;;;;;;14.16;100.00;96624.53;5045531;28;20666;-68
2023/05/08 05:32:13;;;;;;;5.80;3.63;;;;;;;14.09;100.00;96620.97;5044623;28;20218;-70
2023/05/08 05:34:39;;;;;;;6.80;2.90;;;;;;;14.07;100.00;96623.78;5045458;28;20674;-69
2023/05/08 05:37:07;;;;;;;8.10;3.20;;;;;;;14.09;100.00;96624.47;5042161;28;20322;-69
2023/05/08 05:39:34;;;;;;;5.70;3.20;;;;;;;14.06;100.00;96624.81;5006843;28;1040376;-70
2023/05/08 05:42:01;;;;;;;6.93;3.17;;;;;;;14.22;100.00;96629.06;5044045;28;20443;-68
2023/05/08 05:44:27;;;;;;;5.28;2.55;;;;;;;14.13;100.00;96627.56;5044155;28;20217;-69
2023/05/08 05:46:54;;;;;;;6.80;2.97;;;;;;;14.16;100.00;96624.53;5043900;28;20415;-69
2023/05/08 05:49:20;;;;;;;4.82;3.08;;;;;;;14.15;100.00;96625.53;5043148;28;20601;-69
2023/05/08 05:51:47;;;;;;;4.75;2.80;;;;;;;14.11;100.00;96624.25;5043243;28;20582;-70
2023/05/08 05:54:14;;;;;;;6.10;3.05;;;;;;;14.09;100.00;96628.91;5043674;28;20201;-68
2023/05/08 05:56:41;;;;;;;4.78;3.00;;;;;;;13.94;100.00;96630.78;5044118;28;20236;-69
2023/05/08 05:59:07;;;;;;;5.28;2.78;;;;;;;14.04;100.00;96639.25;5042799;28;20812;-69
2023/05/08 06:01:34;;;;;;;6.47;3.03;;;;;;;13.98;100.00;96628.59;5043594;28;20208;-69
2023/05/08 06:04:00;;;;;;;6.10;3.00;;;;;;;13.86;100.00;96636.22;5043843;28;20197;-70
2023/05/08 06:06:27;;;;;;;4.18;2.70;;;;;;;13.75;100.00;96631.38;5043499;28;20217;-69
2023/05/08 06:08:54;;;;;;;8.52;3.03;;;;;;;13.77;100.00;96639.16;5042159;28;20211;-69
2023/05/08 06:11:22;;;;;;;4.15;2.65;;;;;;;13.82;100.00;96631.47;5043490;28;20229;-69
2023/05/08 06:13:48;;;;;;;4.45;2.40;;;;;;;13.69;100.00;96637.44;5043700;28;20206;-70
2023/05/08 06:16:15;;;;;;;4.22;2.72;;;;;;;13.70;100.00;96639.06;5043485;28;20217;-70
2023/05/08 06:18:41;;;;;;;3.63;2.35;;;;;;;13.86;100.00;96638.88;5042996;28;20553;-69
2023/05/08 06:21:08;;;;;;;5.90;2.83;;;;;;;13.83;100.00;96641.88;5044011;28;20201;-71
2023/05/08 06:23:34;;;;;;;4.57;2.72;;;;;;;13.74;100.00;96639.53;5044514;28;20454;-69
2023/05/08 06:26:01;;;;;;;7.25;3.45;;;;;;;13.78;100.00;96638.94;5044553;28;20217;-68
2023/05/08 06:28:28;;;;;;;2.38;1.75;;;;;;;13.64;100.00;96649.59;5043963;28;20237;-69
2023/05/08 06:30:55;;;;;;;4.68;2.90;;;;;;;13.70;100.00;96647.00;5043920;28;20214;-68
2023/05/08 06:33:21;;;;;;;6.53;3.35;;;;;;;13.65;100.00;96646.75;5043347;28;20217;-70
2023/05/08 06:35:48;;;;;;;5.00;2.83;;;;;;;13.77;100.00;96649.75;5042962;28;20217;-69
2023/05/08 06:38:15;;;;;;;4.95;3.30;;;;;;;13.81;100.00;96651.00;5043744;28;20193;-69
2023/05/08 06:40:43;;;;;;;3.92;2.88;;;;;;;13.74;100.00;96656.22;5043382;28;20564;-68
2023/05/08 06:43:09;;;;;;;4.68;2.50;;;;;;;13.73;100.00;96653.78;5044227;28;20302;-70
2023/05/08 06:45:37;;;;;;;6.72;3.47;;;;;;;13.91;100.00;96657.63;5043689;28;20563;-68
2023/05/08 06:48:04;;;;;;;5.00;2.70;;;;;;;13.79;100.00;96659.13;5042364;28;20232;-70
2023/05/08 06:50:31;;;;;;;6.82;3.72;;;;;;;13.82;100.00;96648.16;5042698;28;20205;-68
2023/05/08 06:52:57;;;;;;;5.68;3.55;;;;;;;13.91;100.00;96656.84;5042706;28;20256;-70
2023/05/08 06:55:24;;;;;;;6.35;2.95;;;;;;;13.80;100.00;96655.50;5042866;28;20658;-70
2023/05/08 06:57:50;;;;;;;6.50;3.22;;;;;;;13.87;100.00;96656.38;5042665;28;20212;-70
2023/05/08 07:00:17;;;;;;;6.55;3.22;;;;;;;13.83;100.00;96652.47;5043135;28;20564;-69
2023/05/08 07:02:45;;;;;;;6.35;3.72;;;;;;;13.97;100.00;96653.44;5043473;28;20201;-69
2023/05/08 07:05:11;;;;;;;6.18;2.78;;;;;;;13.89;100.00;96664.97;5042895;28;20547;-69
2023/05/08 07:07:38;;;;;;;7.25;2.95;;;;;;;13.88;100.00;96663.31;5042642;28;20205;-70
2023/05/08 07:10:05;;;;;;;5.63;3.00;;;;;;;13.90;100.00;96660.47;5043319;28;20208;-69
2023/05/08 07:12:31;;;;;;;5.63;3.15;;;;;;;14.04;100.00;96665.75;5043415;28;20704;-70
2023/05/08 07:14:57;;;;;;;6.30;2.80;;;;;;;14.15;100.00;96662.63;5042766;28;20378;-68
2023/05/08 07:17:24;;;;;;;9.43;3.85;;;;;;;13.93;100.00;96660.94;5042020;28;20225;-69
2023/05/08 07:19:52;;;;;;;5.93;3.03;;;;;;;14.10;100.00;96662.38;5042936;28;20212;-69
2023/05/08 07:22:18;;;;;;;4.78;3.35;;;;;;;14.14;100.00;96658.31;5042426;28;20558;-69
2023/05/08 07:24:45;;;;;;;7.20;3.00;;;;;;;14.21;100.00;96664.53;5042749;28;20227;-69
2023/05/08 07:27:13;;;;;;;6.18;3.22;;;;;;;14.48;100.00;96661.13;5043466;28;20728;-72
2023/05/08 07:29:40;;;;;;;8.65;3.05;;;;;;;14.65;100.00;96668.63;5042768;28;20205;-69
2023/05/08 07:32:07;;;;;;;8.02;4.10;;;;;;;14.56;100.00;96660.97;5042911;28;20274;-70
2023/05/08 07:34:33;;;;;;;7.20;2.92;;;;;;;14.73;100.00;96663.19;5042931;28;20209;-69
2023/05/08 07:37:01;;;;;;;4.03;2.80;;;;;;;14.68;100.00;96658.44;5042040;28;20482;-69
2023/05/08 07:39:28;;;;;;;5.25;3.10;;;;;;;14.79;100.00;96667.69;5041321;28;20213;-69
2023/05/08 07:41:54;;;;;;;6.20;3.03;;;;;;;14.77;100.00;96662.59;5041945;28;20197;-69
2023/05/08 07:44:21;;;;;;;5.93;2.60;;;;;;;14.98;100.00;96664.38;5042080;28;20206;-69
2023/05/08 07:46:47;;;;;;;5.95;3.40;;;;;;;15.03;100.00;96668.13;5041404;28;20228;-70
2023/05/08 07:49:14;;;;;;;6.20;3.50;;;;;;;15.15;100.00;96671.84;5041527;28;20217;-70
2023/05/08 07:51:40;;;;;;;6.57;3.33;;;;;;;15.01;100.00;96674.63;5041495;28;20205;-70
2023/05/08 07:54:09;;;;;;;6.28;3.42;;;;;;;15.05;100.00;96670.56;5042446;28;20672;-70
2023/05/08 07:56:35;;;;;;;6.55;3.40;;;;;;;14.73;100.00;96677.25;5042131;28;20228;-70
2023/05/08 07:59:02;;;;;;;7.57;4.15;;;;;;;14.81;100.00;96663.84;5041141;28;20208;-69
2023/05/08 08:01:28;;;;;;;5.57;3.40;;;;;;;14.88;100.00;96669.19;5041565;28;20201;-69
2023/05/08 08:03:54;;;;;;;6.05;2.92;;;;;;;14.80;100.00;96667.53;5041654;28;20205;-70
2023/05/08 08:06:21;;;;;;;5.88;3.28;;;;;;;15.20;100.00;96674.75;5041897;28;20599;-69
2023/05/08 08:08:47;;;;;;;6.32;3.58;;;;;;;15.17;100.00;96669.81;5041629;28;20578;-70
2023/05/08 08:11:15;;;;;;;6.45;3.13;;;;;;;15.32;100.00;96674.06;5041435;28;20213;-70
2023/05/08 08:13:42;;;;;;;7.15;3.63;;;;;;;15.36;100.00;96669.16;5041565;28;20701;-70
2023/05/08 08:16:08;;;;;;;6.25;3.30;;;;;;;15.02;100.00;96673.59;5041569;28;20228;-70
2023/05/08 08:18:35;;;;;;;3.70;2.35;;;;;;;15.20;100.00;96671.25;5041423;28;20197;-69
2023/05/08 08:21:05;;;;;;;7.32;3.88;;;;;;;14.69;100.00;96670.69;5041504;28;20213;-70
2023/05/08 08:23:31;;;;;;;10.70;3.58;;;;;;;15.08;100.00;96673.63;5041609;28;20208;-68
2023/05/08 08:25:58;;;;;;;6.78;3.38;;;;;;;15.11;100.00;96667.97;5041666;28;20221;-69
2023/05/08 08:28:26;;;;;;;6.68;3.28;;;;;;;15.49;100.00;96670.06;5040958;28;20201;-69
2023/05/08 08:30:52;;;;;;;6.35;3.55;;;;;;;15.31;100.00;96676.88;5041479;28;20208;-69
2023/05/08 08:33:18;;;;;;;5.75;3.58;;;;;;;14.97;100.00;96671.53;5043398;28;20221;-69
2023/05/08 08:35:45;;;;;;;7.72;3.65;;;;;;;14.94;100.00;96681.69;5044823;28;20224;-69
2023/05/08 08:38:11;;;;;;;9.35;5.00;;;;;;;15.25;100.00;96677.69;5044274;28;20212;-69
2023/05/08 08:40:41;;;;;;;6.28;3.80;;;;;;;15.24;100.00;96670.72;5045065;28;20704;-69
2023/05/08 08:43:08;;;;;;;7.70;4.18;;;;;;;15.39;100.00;96671.44;5045110;28;20216;-69
2023/05/08 08:45:37;;;;;;;4.40;2.70;;;;;;;15.51;100.00;96675.97;5045325;28;20225;-69
2023/05/08 08:48:05;;;;;;;7.78;3.20;;;;;;;15.70;100.00;96671.78;5044146;28;20215;-69
2023/05/08 08:50:32;;;;;;;6.55;4.00;;;;;;;15.84;100.00;96672.44;5045066;28;20216;-68
2023/05/08 08:53:04;;;;;;;5.90;2.85;;;;;;;16.02;100.00;96672.72;5045378;28;20217;-68
2023/05/08 08:55:33;;;;;;;6.00;3.30;;;;;;;15.99;100.00;96673.13;5045554;28;20232;-69
2023/05/08 08:58:14;;;;;;;4.38;2.75;;;;;;;15.88;100.00;96688.81;5044310;28;20200;-69
2023/05/08 09:00:42;;;;;;;6.50;4.03;;;;;;;15.87;100.00;96674.72;5044749;28;20200;-68
2023/05/08 09:03:09;;;;;;;7.30;3.70;;;;;;;15.95;100.00;96676.41;5044686;28;20201;-69
2023/05/08 09:05:36;;;;;;;6.82;3.25;;;;;;;15.95;100.00;96677.19;5044370;28;20672;-68
2023/05/08 09:08:02;;;;;;;7.82;4.20;;;;;;;15.82;100.00;96683.47;5044354;28;20205;-69
2023/05/08 09:10:29;;;;;;;9.27;4.32;;;;;;;15.77;100.00;96685.91;5044754;28;20205;-68
2023/05/08 09:12:55;;;;;;;10.45;4.53;;;;;;;15.54;100.00;96682.72;5044355;28;20588;-69
2023/05/08 09:15:22;;;;;;;10.23;3.92;;;;;;;15.46;100.00;96686.38;5044511;28;20563;-69
2023/05/08 09:17:50;;;;;;;10.57;4.38;;;;;;;15.83;100.00;96687.78;5044185;28;20201;-68
2023/05/08 09:20:16;;;;;;;9.07;3.75;;;;;;;15.55;100.00;96685.19;5044323;28;20208;-69
2023/05/08 09:22:43;;;;;;;6.45;3.05;;;;;;;15.76;100.00;96682.44;5044415;28;20853;-69
2023/05/08 09:25:10;;;;;;;7.40;4.13;;;;;;;15.98;100.00;96682.09;5044449;28;20233;-69
2023/05/08 09:27:37;;;;;;;8.52;4.10;;;;;;;15.99;100.00;96681.09;5043909;28;20216;-69
2023/05/08 09:30:06;;;;;;;8.00;4.10;;;;;;;15.90;100.00;96682.28;5043852;28;20212;-69
2023/05/08 09:32:34;;;;;;;8.65;3.58;;;;;;;15.84;100.00;96690.25;5043835;28;20780;-68
2023/05/08 09:35:02;;;;;;;7.55;4.63;;;;;;;15.83;100.00;96687.78;5044220;28;20201;-69
2023/05/08 09:37:29;;;;;;;10.80;4.35;;;;;;;15.88;100.00;96687.00;5043411;28;20221;-69
2023/05/08 09:40:13;;;;;;;6.88;4.15;;;;;;;15.90;100.00;96684.13;5043670;28;20302;-70
2023/05/08 09:42:39;;;;;;;9.52;3.80;;;;;;;15.79;100.00;96692.66;5043928;28;20535;-70
2023/05/08 09:45:07;;;;;;;7.53;4.45;;;;;;;15.85;100.00;96698.00;5042416;28;20673;-70
2023/05/08 09:47:36;;;;;;;7.40;3.72;;;;;;;16.01;100.00;96688.88;5043076;28;20205;-70
2023/05/08 09:50:05;;;;;;;11.48;4.72;;;;;;;16.07;100.00;96691.53;5043679;28;20219;-70
2023/05/08 09:52:33;;;;;;;7.45;4.03;;;;;;;15.86;100.00;96702.31;5043713;28;20224;-70
2023/05/08 09:55:01;;;;;;;7.28;3.25;;;;;;;15.76;100.00;96702.88;5043930;28;20573;-70
2023/05/08 09:57:29;;;;;;;7.13;4.15;;;;;;;15.64;100.00;96699.13;5044685;28;20596;-68
2023/05/08 10:00:05;;;;;;;6.80;3.65;;;;;;;15.80;100.00;96704.13;5044672;28;20240;-70
2023/05/08 10:02:32;;;;;;;8.82;4.20;;;;;;;15.71;100.00;96705.31;5045089;28;20193;-69
2023/05/08 10:04:58;;;;;;;7.68;4.13;;;;;;;15.76;100.00;96706.38;5044106;28;20546;-70
2023/05/08 10:07:31;;;;;;;8.48;3.67;;;;;;;15.83;100.00;96707.19;5042946;28;20244;-71
2023/05/08 10:09:59;;;;;;;7.82;3.80;;;;;;;15.79;100.00;96713.94;5044005;28;20681;-69
2023/05/08 10:12:26;;;;;;;8.23;3.95;;;;;;;15.83;100.00;96712.50;5046487;28;20270;-70
2023/05/08 10:14:52;;;;;;;8.63;4.50;;;;;;;15.83;100.00;96714.38;5045800;28;20204;-68
2023/05/08 10:17:26;;;;;;;9.73;4.53;;;;;;;15.87;100.00;96714.59;5044850;28;20221;-71
2023/05/08 10:19:57;;;;;;;7.57;4.07;;;;;;;15.73;100.00;96713.91;5043470;28;20517;-68
2023/05/08 10:22:25;;;;;;;10.18;4.43;;;;;;;15.60;100.00;96717.28;5045338;28;20208;-69
2023/05/08 10:24:56;;;;;;;10.40;5.15;;;;;;;15.67;100.00;96714.69;5044337;28;20216;-68
2023/05/08 10:27:30;;;;;;;7.78;3.42;;;;;;;15.59;100.00;96721.00;5042350;28;20580;-68
2023/05/08 10:30:02;;;;;;;7.13;3.83;;;;;;;15.68;100.00;96716.31;5043096;28;20201;-69
2023/05/08 10:32:42;;;;;;;10.38;4.30;;;;;;;15.74;100.00;96711.03;5043311;28;20580;-70
2023/05/08 10:35:10;;;;;;;7.63;3.45;;;;;;;15.85;100.00;96713.16;5043181;28;20217;-70
2023/05/08 10:37:38;;;;;;;7.53;3.47;;;;;;;15.86;100.00;96715.59;5042567;28;20231;-71
2023/05/08 10:40:08;;;;;;;10.57;4.90;;;;;;;16.04;100.00;96707.91;5043113;28;20209;-69
2023/05/08 10:42:35;;;;;;;6.40;3.63;;;;;;;16.14;100.00;96707.53;5042723;28;20201;-68
2023/05/08 10:45:02;;;;;;;7.28;4.03;;;;;;;16.33;100.00;96712.13;5042762;28;20276;-68
2023/05/08 10:47:41;;;;;;;7.28;3.63;;;;;;;16.34;100.00;96700.47;5042148;28;20229;-70
2023/05/08 10:50:19;;;;;;;9.30;4.00;;;;;;;16.26;100.00;96696.16;5042822;28;20208;-70
2023/05/08 10:52:53;;;;;;;9.63;3.78;;;;;;;16.22;100.00;96700.19;5042399;28;20232;-71
2023/05/08 10:55:25;;;;;;;6.95;3.22;;;;;;;16.26;100.00;96701.47;5041935;28;20204;-69
2023/05/08 10:58:11;;;;;;;8.23;3.67;;;;;;;16.15;100.00;96694.06;5041981;28;20216;-71
2023/05/08 11:01:18;;;;;;;4.15;2.38;;;;;;;15.94;100.00;96702.13;5042056;28;20239;-70
2023/05/08 11:03:47;;;;;;;13.00;5.20;;;;;;;15.96;100.00;96699.28;5042305;28;20392;-70
2023/05/08 11:06:14;;;;;;;15.02;3.13;;;;;;;15.92;100.00;96706.00;5042805;28;20235;-70
2023/05/08 11:08:47;;;;;;;7.95;3.85;;;;;;;16.05;100.00;96690.09;5041662;28;20596;-70
2023/05/08 11:11:32;;;;;;;8.32;3.55;;;;;;;16.19;100.00;96699.75;5042579;28;20201;-70
2023/05/08 11:14:09;;;;;;;9.07;3.28;;;;;;;16.21;100.00;96700.41;5041332;28;20221;-70
2023/05/08 11:17:04;;;;;;;7.75;3.83;;;;;;;16.45;100.00;96694.56;5042674;28;20228;-70
2023/05/08 11:19:31;;;;;;;7.20;3.50;;;;;;;16.12;100.00;96707.72;5042051;28;20243;-67
2023/05/08 11:22:31;;;;;;;7.22;3.42;;;;;;;16.14;100.00;96711.00;5042715;28;20209;-68
2023/05/08 11:25:04;;;;;;;8.02;3.60;;;;;;;16.36;100.00;96701.91;5042634;28;20237;-68
2023/05/08 11:28:03;;;;;;;9.55;4.05;;;;;;;16.22;100.00;96700.19;5041645;28;20335;-71
2023/05/08 11:30:40;;;;;;;5.97;2.92;;;;;;;16.04;100.00;96702.59;5042397;28;20373;-69
2023/05/08 11:33:29;;;;;;;10.45;4.35;;;;;;;15.74;100.00;96695.09;5041445;28;20228;-71
2023/05/08 11:35:56;;;;;;;8.75;4.47;;;;;;;15.62;100.00;96701.19;5041907;28;20595;-68